TimeCDT,TemperatureF,Dew PointF,Humidity,Sea Level PressureIn,VisibilityMPH,Wind Direction,Wind SpeedMPH,Gust SpeedMPH,PrecipitationIn,Events,Conditions,WindDirDegrees,DateUTC
12:53 AM,81.0,66.0,60,29.84,10.0,South,11.5,-,N/A,,Clear,180,2013-07-21 05:53:00
1:53 AM,78.1,66.9,68,29.83,10.0,South,11.5,-,N/A,,Clear,180,2013-07-21 06:53:00
2:53 AM,77.0,68.0,74,29.82,10.0,South,10.4,-,N/A,,Clear,180,2013-07-21 07:53:00
3:53 AM,75.0,68.0,79,29.82,10.0,South,9.2,-,N/A,,Clear,180,2013-07-21 08:53:00
4:53 AM,73.9,68.0,82,29.82,10.0,SSW,9.2,-,N/A,,Clear,200,2013-07-21 09:53:00
5:53 AM,73.0,68.0,84,29.83,10.0,SSW,9.2,-,N/A,,Clear,200,2013-07-21 10:53:00
6:53 AM,73.0,69.1,87,29.84,10.0,SSW,6.9,-,N/A,,Clear,210,2013-07-21 11:53:00
7:53 AM,75.9,69.1,79,29.83,10.0,SSW,10.4,-,N/A,,Clear,200,2013-07-21 12:53:00
8:53 AM,82.0,66.9,60,29.85,10.0,SSW,10.4,-,N/A,,Clear,210,2013-07-21 13:53:00
9:53 AM,87.1,66.0,49,29.86,10.0,WSW,11.5,-,N/A,,Clear,240,2013-07-21 14:53:00
10:53 AM,91.0,62.1,38,29.85,10.0,WSW,15.0,-,N/A,,Clear,250,2013-07-21 15:53:00
11:53 AM,93.0,62.1,36,29.85,10.0,WSW,15.0,20.7,N/A,,Clear,240,2013-07-21 16:53:00
12:53 PM,96.1,61.0,31,29.83,10.0,WSW,13.8,21.9,N/A,,Clear,250,2013-07-21 17:53:00
1:53 PM,96.1,60.1,30,29.82,10.0,WSW,17.3,24.2,N/A,,Clear,250,2013-07-21 18:53:00
2:53 PM,99.0,59.0,26,29.80,10.0,WSW,10.4,31.1,N/A,,Clear,250,2013-07-21 19:53:00
3:53 PM,99.0,57.9,25,29.78,10.0,SSW,17.3,24.2,N/A,,Clear,210,2013-07-21 20:53:00
4:53 PM,99.0,57.9,25,29.78,10.0,West,15.0,24.2,N/A,,Partly Cloudy,260,2013-07-21 21:53:00
5:53 PM,98.1,59.0,27,29.77,10.0,SW,15.0,23.0,N/A,,Clear,230,2013-07-21 22:53:00
6:53 PM,96.1,61.0,31,29.76,10.0,SSW,15.0,-,N/A,,Partly Cloudy,210,2013-07-21 23:53:00
7:53 PM,93.9,61.0,33,29.77,10.0,SSW,13.8,-,N/A,,Clear,200,2013-07-22 00:53:00
8:53 PM,89.1,62.1,40,29.78,10.0,South,10.4,-,N/A,,Clear,190,2013-07-22 01:53:00
9:53 PM,84.9,64.0,49,29.80,10.0,South,10.4,-,N/A,,Clear,190,2013-07-22 02:53:00
10:53 PM,82.0,64.0,54,29.82,10.0,SSW,9.2,-,N/A,,Clear,210,2013-07-22 03:53:00
11:53 PM,80.1,66.0,62,29.83,10.0,SSW,9.2,-,N/A,,Clear,210,2013-07-22 04:53:00